Hosford, Florida
Current Conditions -  °F | °C
As of 11:15 PM on Sunday 23 Nov 2014 (Local Time) from K2J9 Reporting Station
Overcast Overcast  
Wind Chill: 64°   Ceiling: 400
Heat Index: 64°   Visibility: 10mi
Dew Point: 64°   Wind: 6mph
Humidity: 100%   Direction: 180°S
Pressure: 29.87"   Gusts: NA
Location:  30.39°N, 84.8°W
Report Text: K2J9 240415Z AUTO 18005KT 10SM BKN004 OVC026 18/18 A2987 RMK AO1
Loading
Personal Weather Stations






























Interactive Weather Map New forecast layout! Learn more

10-Day Weather Forecast

Advertisements
Track Severe Weather on mobile